KGED/GED METAR and TAF weather

Enter ICAO airport designator
Station Type Date Time Source
KGED METAR 2020/02/27 13:54 UTC NOAA

KGED 271354Z AUTO 28019G30KT 10SM CLR 05/M04 A2969 RMK AO2 PK WND 29033/1340 RAE11B31E41 SLP053 P0000 T00501044 TSNO


Station Type Date Time Source
KGED Decoded METAR 2020/02/27 13:54 UTC NOAA

GEORGETOWN SUSSEX CO AIRPORT , DE, United States (KGED) 38-41N 075-22W 19M
Feb 27, 2020 - 08:54 AM EST / 2020.02.27 1354 UTC
Wind: from the W (280 degrees) at 22 MPH (19 KT) gusting to 35 MPH (30 KT):0
Visibility: 10 mile(s):0
Sky conditions: clear
Precipitation last hour: A trace
Temperature: 41.0 F (5.0 C)
Dew Point: 24.1 F (-4.4 C)
Relative Humidity: 50%
Pressure (altimeter): 29.69 in. Hg (1005 hPa)
ob: KGED 271354Z AUTO 28019G30KT 10SM CLR 05/M04 A2969 RMK AO2 PK WND 29033/1340 RAE11B31E41 SLP053 P0000 T00501044 TSNO
cycle: 14

Station Type Date Time Source
KGED TAF UTC NOAA

Error!

Example: see airport list